Time;durP1;ratioP1;P1;durP2;ratioP2;P2;SDS_P1;SDS_P2;PMS_P1;PMS_P2;Temp;Humidity;BMP_temperature;BMP_pressure;BME280_temperature;BME280_humidity;BME280_pressure;Samples;Min_cycle;Max_cycle;Signal;HPM_P1;HPM_P2
2022/07/24 00:00:32;;;;;;;15.23;13.30;;;18.60;99.90;;;;;;2112556;28;20039;-74
2022/07/24 00:01:33;;;;;;;14.32;12.93;;;18.50;99.90;;;;;;2112045;28;20027;-72
2022/07/24 00:02:34;;;;;;;14.73;13.27;;;18.60;99.90;;;;;;2111851;28;20074;-71
2022/07/24 00:03:34;;;;;;;14.13;12.63;;;18.50;99.90;;;;;;2112521;28;20103;-72
2022/07/24 00:04:35;;;;;;;14.57;13.00;;;18.50;99.90;;;;;;2111597;28;20028;-72
2022/07/24 00:05:36;;;;;;;12.98;11.77;;;18.60;99.90;;;;;;2111832;28;20071;-74
2022/07/24 00:06:36;;;;;;;13.85;12.43;;;18.50;99.90;;;;;;2112809;28;20016;-74
2022/07/24 00:07:37;;;;;;;13.63;12.18;;;18.50;99.90;;;;;;2112539;28;20074;-74
2022/07/24 00:08:38;;;;;;;12.75;11.57;;;18.50;99.90;;;;;;2112550;28;20032;-74
2022/07/24 00:09:39;;;;;;;13.18;11.65;;;18.50;99.90;;;;;;2111697;28;20074;-73
2022/07/24 00:10:39;;;;;;;12.45;11.23;;;18.50;99.90;;;;;;2111867;28;20039;-73
2022/07/24 00:11:40;;;;;;;13.20;11.80;;;18.40;99.90;;;;;;2112535;28;20039;-74
2022/07/24 00:12:40;;;;;;;12.65;11.45;;;18.40;99.90;;;;;;2112371;28;20115;-74
2022/07/24 00:13:41;;;;;;;13.10;11.80;;;18.40;99.90;;;;;;2103087;28;20398;-73
2022/07/24 00:14:42;;;;;;;13.23;11.93;;;18.40;99.90;;;;;;2103400;28;20081;-75
2022/07/24 00:15:43;;;;;;;12.68;11.38;;;18.40;99.90;;;;;;2112651;28;20039;-74
2022/07/24 00:16:43;;;;;;;11.93;10.82;;;18.40;99.90;;;;;;2112550;28;20046;-74
2022/07/24 00:17:44;;;;;;;14.77;11.50;;;18.30;99.90;;;;;;2112594;28;20111;-73
2022/07/24 00:18:45;;;;;;;12.20;11.00;;;18.30;99.90;;;;;;2112603;28;20058;-74
2022/07/24 00:19:45;;;;;;;12.05;10.85;;;18.30;99.90;;;;;;2112717;28;20036;-74
2022/07/24 00:20:46;;;;;;;11.85;10.65;;;18.30;99.90;;;;;;2112834;28;20047;-73
2022/07/24 00:21:47;;;;;;;11.80;10.70;;;18.30;99.90;;;;;;2112625;28;20035;-74
2022/07/24 00:22:47;;;;;;;11.52;10.27;;;18.30;99.90;;;;;;2111908;28;20056;-73
2022/07/24 00:23:48;;;;;;;11.77;10.60;;;18.30;99.90;;;;;;2112031;28;20091;-73
2022/07/24 00:24:49;;;;;;;11.77;10.68;;;18.30;99.90;;;;;;2112811;28;20062;-73
2022/07/24 00:25:51;;;;;;;11.15;10.13;;;18.30;99.90;;;;;;2112144;28;20032;-73
2022/07/24 00:26:52;;;;;;;12.05;10.77;;;18.30;99.90;;;;;;2112196;28;20577;-74
2022/07/24 00:27:52;;;;;;;11.35;10.25;;;18.20;99.90;;;;;;2112604;28;20028;-73
2022/07/24 00:28:53;;;;;;;11.75;10.18;;;18.20;99.90;;;;;;2112916;28;20514;-73
2022/07/24 00:29:54;;;;;;;11.52;10.40;;;18.20;99.90;;;;;;2113016;28;20600;-75
2022/07/24 00:30:54;;;;;;;12.55;11.25;;;18.20;99.90;;;;;;2112180;28;20485;-74
2022/07/24 00:31:55;;;;;;;16.73;10.23;;;18.20;99.90;;;;;;2103660;28;20032;-73
2022/07/24 00:32:56;;;;;;;11.15;10.05;;;18.20;99.90;;;;;;2111748;28;20733;-73
2022/07/24 00:33:57;;;;;;;11.80;10.10;;;18.20;99.90;;;;;;2112593;28;20537;-73
2022/07/24 00:34:57;;;;;;;12.18;10.93;;;18.20;99.90;;;;;;2112557;28;20012;-74
2022/07/24 00:35:58;;;;;;;11.25;10.23;;;18.20;99.90;;;;;;2112660;28;20074;-72
2022/07/24 00:36:59;;;;;;;11.73;10.63;;;18.20;99.90;;;;;;2111809;28;20035;-73
2022/07/24 00:37:59;;;;;;;11.63;10.52;;;18.20;99.90;;;;;;2111612;28;20036;-72
2022/07/24 00:39:00;;;;;;;11.20;10.05;;;18.20;99.90;;;;;;2112329;28;20047;-75
2022/07/24 00:40:01;;;;;;;11.13;9.95;;;18.20;99.90;;;;;;2112382;28;20031;-72
2022/07/24 00:41:02;;;;;;;13.52;10.10;;;18.20;99.90;;;;;;2112494;28;20023;-73
2022/07/24 00:42:03;;;;;;;11.32;10.15;;;18.20;99.90;;;;;;2112289;28;20034;-73
2022/07/24 00:43:03;;;;;;;12.00;10.80;;;18.20;99.90;;;;;;2112392;28;20062;-72
2022/07/24 00:44:08;;;;;;;11.45;10.32;;;18.20;99.90;;;;;;2111635;28;20028;-73
2022/07/24 00:45:10;;;;;;;11.85;10.63;;;18.20;99.90;;;;;;2103258;28;20029;-72
2022/07/24 00:46:11;;;;;;;13.55;10.80;;;18.20;99.90;;;;;;2103560;28;20763;-72
2022/07/24 00:47:11;;;;;;;11.32;10.07;;;18.20;99.90;;;;;;2111700;28;20024;-72
2022/07/24 00:48:12;;;;;;;12.18;10.98;;;18.20;99.90;;;;;;2111312;28;20110;-72
2022/07/24 00:49:16;;;;;;;12.93;10.80;;;18.20;99.90;;;;;;2108834;28;20032;-72
2022/07/24 00:50:17;;;;;;;12.32;10.98;;;18.20;99.90;;;;;;2106568;28;20051;-72
2022/07/24 00:51:18;;;;;;;13.23;11.20;;;18.20;99.90;;;;;;2106857;28;20494;-72
2022/07/24 00:52:18;;;;;;;12.13;10.93;;;18.20;99.90;;;;;;2106854;28;20062;-72
2022/07/24 00:53:19;;;;;;;11.73;10.52;;;18.20;99.90;;;;;;2106902;28;20024;-73
2022/07/24 00:54:21;;;;;;;11.93;10.75;;;18.20;99.90;;;;;;2105927;28;20039;-72
2022/07/24 00:55:22;;;;;;;13.93;11.93;;;18.20;99.90;;;;;;2106074;28;20436;-74
2022/07/24 00:56:23;;;;;;;13.73;12.25;;;18.20;99.90;;;;;;2106140;28;20028;-72
2022/07/24 00:57:23;;;;;;;12.75;11.43;;;18.20;99.90;;;;;;2106021;28;20032;-73
2022/07/24 00:58:25;;;;;;;12.30;11.10;;;18.10;99.90;;;;;;2106452;28;20020;-72
2022/07/24 00:59:26;;;;;;;12.98;11.00;;;18.10;99.90;;;;;;2106569;28;20462;-73
2022/07/24 01:00:27;;;;;;;12.18;10.98;;;18.10;99.90;;;;;;2106527;28;20024;-72
2022/07/24 01:01:28;;;;;;;12.57;11.27;;;18.10;99.90;;;;;;2106546;28;20032;-73
2022/07/24 01:02:28;;;;;;;12.30;11.10;;;18.10;99.90;;;;;;2106576;28;20055;-73
2022/07/24 01:03:29;;;;;;;12.35;11.10;;;18.10;99.90;;;;;;2106474;28;20028;-73
2022/07/24 01:04:30;;;;;;;12.63;10.95;;;18.00;99.90;;;;;;2106301;28;20077;-72
2022/07/24 01:05:31;;;;;;;13.95;11.73;;;18.00;99.90;;;;;;2106486;28;20505;-72
2022/07/24 01:06:31;;;;;;;12.82;11.52;;;18.00;99.90;;;;;;2106553;28;20024;-73
2022/07/24 01:07:32;;;;;;;13.57;11.27;;;18.00;99.90;;;;;;2109164;28;20028;-73
2022/07/24 01:08:34;;;;;;;12.20;11.02;;;18.00;99.90;;;;;;2108988;28;20047;-73
2022/07/24 01:09:35;;;;;;;12.73;11.43;;;17.90;99.90;;;;;;2108435;28;20111;-73
2022/07/24 01:10:36;;;;;;;12.68;11.38;;;18.00;99.90;;;;;;2105859;28;20024;-74
2022/07/24 01:11:38;;;;;;;12.70;11.40;;;18.00;99.90;;;;;;2105487;28;20062;-74
2022/07/24 01:12:40;;;;;;;12.90;11.70;;;17.90;99.90;;;;;;2106084;28;20020;-73
2022/07/24 01:13:41;;;;;;;13.98;11.52;;;17.90;99.90;;;;;;2106422;28;20031;-73
2022/07/24 01:14:42;;;;;;;13.40;12.10;;;17.90;99.90;;;;;;2106806;28;20459;-73
2022/07/24 01:15:42;;;;;;;13.88;12.15;;;17.90;99.90;;;;;;2105874;28;20170;-73
2022/07/24 01:16:43;;;;;;;13.13;11.90;;;17.90;99.90;;;;;;2105756;28;20555;-74
2022/07/24 01:17:44;;;;;;;13.20;11.90;;;17.90;99.90;;;;;;2105510;28;20119;-73
2022/07/24 01:18:45;;;;;;;13.70;12.30;;;17.90;99.90;;;;;;2105635;28;20103;-74
2022/07/24 01:19:45;;;;;;;14.45;12.70;;;17.90;99.90;;;;;;2106408;28;20054;-73
2022/07/24 01:20:47;;;;;;;14.35;12.40;;;17.90;99.90;;;;;;2106467;28;20547;-74
2022/07/24 01:21:50;;;;;;;13.25;11.88;;;17.80;99.90;;;;;;2106475;28;20032;-73
2022/07/24 01:22:51;;;;;;;14.07;12.77;;;17.80;99.90;;;;;;2106266;28;20470;-72
2022/07/24 01:23:51;;;;;;;13.57;12.25;;;17.80;99.90;;;;;;2105698;28;20028;-72
2022/07/24 01:24:53;;;;;;;14.02;12.63;;;17.80;99.90;;;;;;2105809;28;20161;-72
2022/07/24 01:25:54;;;;;;;13.38;12.07;;;17.80;99.90;;;;;;2106620;28;20074;-73
2022/07/24 01:26:55;;;;;;;13.60;12.20;;;17.80;99.90;;;;;;2106239;28;20024;-73
2022/07/24 01:27:55;;;;;;;15.15;12.38;;;17.70;99.90;;;;;;2106334;28;20032;-72
2022/07/24 01:28:56;;;;;;;14.30;12.75;;;17.70;99.90;;;;;;2106505;28;20028;-72
2022/07/24 01:29:57;;;;;;;13.90;12.45;;;17.70;99.90;;;;;;2106492;28;20031;-72
2022/07/24 01:30:57;;;;;;;14.13;12.70;;;17.70;99.90;;;;;;2106533;28;20085;-73
2022/07/24 01:31:58;;;;;;;13.95;12.65;;;17.70;99.90;;;;;;2106298;28;20054;-73
2022/07/24 01:32:59;;;;;;;14.75;13.15;;;17.70;99.90;;;;;;2106163;28;20044;-73
2022/07/24 01:34:00;;;;;;;15.07;12.60;;;17.60;99.90;;;;;;2106330;28;20069;-73
2022/07/24 01:35:01;;;;;;;14.88;13.38;;;17.60;99.90;;;;;;2106330;28;20125;-73
2022/07/24 01:36:01;;;;;;;14.32;12.93;;;17.60;99.90;;;;;;2106306;28;20032;-73
2022/07/24 01:37:02;;;;;;;14.45;13.05;;;17.60;99.90;;;;;;2106436;28;20072;-73
2022/07/24 01:38:03;;;;;;;14.10;12.63;;;17.60;99.90;;;;;;2105942;28;20032;-73
2022/07/24 01:39:04;;;;;;;14.23;12.82;;;17.70;99.90;;;;;;2105668;28;20044;-73
2022/07/24 01:40:05;;;;;;;14.25;12.75;;;17.60;99.90;;;;;;2105500;28;20498;-73
2022/07/24 01:41:06;;;;;;;14.13;12.73;;;17.60;99.90;;;;;;2106322;28;20096;-73
2022/07/24 01:42:06;;;;;;;14.60;13.07;;;17.60;99.90;;;;;;2106007;28;20474;-74
2022/07/24 01:43:07;;;;;;;14.90;13.38;;;17.60;99.90;;;;;;2105884;28;20110;-73
2022/07/24 01:44:08;;;;;;;14.30;12.80;;;17.60;99.90;;;;;;2106110;28;20142;-73
2022/07/24 01:45:09;;;;;;;13.75;12.30;;;17.50;99.90;;;;;;2105940;28;20027;-73
2022/07/24 01:46:11;;;;;;;15.05;13.27;;;17.50;99.90;;;;;;2106289;28;20023;-73
2022/07/24 01:47:12;;;;;;;14.10;12.35;;;17.60;99.90;;;;;;2105479;28;20027;-72
2022/07/24 01:48:13;;;;;;;13.77;12.40;;;17.50;99.90;;;;;;2105244;28;20039;-73
2022/07/24 01:49:13;;;;;;;14.18;12.77;;;17.50;99.90;;;;;;2106071;28;20028;-74
2022/07/24 01:50:14;;;;;;;14.85;13.25;;;17.50;99.90;;;;;;2105969;28;20032;-74
2022/07/24 01:51:15;;;;;;;13.95;12.50;;;17.50;99.90;;;;;;2105815;28;20041;-73
2022/07/24 01:52:16;;;;;;;14.23;12.73;;;17.50;99.90;;;;;;2105815;28;20101;-72
2022/07/24 01:53:16;;;;;;;14.52;13.02;;;17.40;99.90;;;;;;2106053;28;20107;-73
2022/07/24 01:54:17;;;;;;;14.23;12.65;;;17.40;99.90;;;;;;2106441;28;20034;-73
2022/07/24 01:55:18;;;;;;;14.25;12.75;;;17.40;99.90;;;;;;2106386;28;20095;-73
2022/07/24 01:56:18;;;;;;;14.07;12.70;;;17.40;99.90;;;;;;2105944;28;20443;-73
2022/07/24 01:57:19;;;;;;;13.90;12.57;;;17.40;99.90;;;;;;2105576;28;20040;-72
2022/07/24 01:58:20;;;;;;;13.98;12.48;;;17.40;99.90;;;;;;2105659;28;20073;-74
2022/07/24 01:59:20;;;;;;;14.43;13.02;;;17.40;99.90;;;;;;2106033;28;20095;-73
2022/07/24 02:00:21;;;;;;;16.73;13.20;;;17.40;99.90;;;;;;2105734;28;20119;-73
2022/07/24 02:01:22;;;;;;;14.07;12.68;;;17.40;99.90;;;;;;2105414;28;20028;-73
2022/07/24 02:02:23;;;;;;;14.35;12.50;;;17.40;99.90;;;;;;2105730;28;20035;-72
2022/07/24 02:03:23;;;;;;;14.00;12.60;;;17.30;99.90;;;;;;2105538;28;20028;-72
2022/07/24 02:04:24;;;;;;;14.27;12.88;;;17.30;99.90;;;;;;2105665;28;20502;-73
2022/07/24 02:05:26;;;;;;;14.38;12.95;;;17.40;99.90;;;;;;2106485;28;20474;-73
2022/07/24 02:06:27;;;;;;;13.70;12.18;;;17.30;99.90;;;;;;2106368;28;20020;-74
2022/07/24 02:07:28;;;;;;;14.27;12.70;;;17.30;99.90;;;;;;2106471;28;20055;-73
2022/07/24 02:08:28;;;;;;;14.68;13.18;;;17.20;99.90;;;;;;2107022;28;20020;-75
2022/07/24 02:09:29;;;;;;;13.55;12.25;;;17.20;99.90;;;;;;2106347;28;20022;-74
2022/07/24 02:10:30;;;;;;;14.25;12.85;;;17.20;99.90;;;;;;2106922;28;20032;-73
2022/07/24 02:11:30;;;;;;;13.85;12.40;;;17.20;99.90;;;;;;2111531;28;20012;-73
2022/07/24 02:12:31;;;;;;;13.55;12.15;;;17.10;99.90;;;;;;2110988;28;20016;-73
2022/07/24 02:13:32;;;;;;;13.18;11.88;;;17.10;99.90;;;;;;2109438;28;20057;-72
2022/07/24 02:14:33;;;;;;;13.63;12.05;;;17.10;99.90;;;;;;2106233;28;20036;-74
2022/07/24 02:15:34;;;;;;;14.13;12.25;;;17.10;99.90;;;;;;2107022;28;20069;-73
2022/07/24 02:16:34;;;;;;;13.55;12.25;;;17.10;99.90;;;;;;2106415;28;20077;-73
2022/07/24 02:17:35;;;;;;;13.88;12.07;;;17.10;99.90;;;;;;2097657;28;20028;-73
2022/07/24 02:18:36;;;;;;;12.93;11.73;;;17.10;99.90;;;;;;2097764;28;20032;-73
2022/07/24 02:19:36;;;;;;;14.10;12.70;;;17.10;99.90;;;;;;2097470;28;20039;-73
2022/07/24 02:20:37;;;;;;;13.07;11.75;;;17.10;99.90;;;;;;2105852;28;20053;-74
2022/07/24 02:21:38;;;;;;;14.48;12.32;;;17.00;99.90;;;;;;2106710;28;20039;-73
2022/07/24 02:22:38;;;;;;;13.95;12.55;;;17.00;99.90;;;;;;2106302;28;20013;-73
2022/07/24 02:23:39;;;;;;;14.10;12.38;;;17.00;99.90;;;;;;2106010;28;20490;-74
2022/07/24 02:24:40;;;;;;;14.35;12.18;;;17.00;99.90;;;;;;2105382;28;20024;-73
2022/07/24 02:25:40;;;;;;;13.35;11.63;;;17.00;99.90;;;;;;2105628;28;20020;-72
2022/07/24 02:26:41;;;;;;;13.75;12.05;;;17.00;99.90;;;;;;2097587;28;20032;-73
2022/07/24 02:27:42;;;;;;;14.25;12.20;;;16.90;99.90;;;;;;2105764;28;20024;-73
2022/07/24 02:28:42;;;;;;;13.30;12.00;;;16.90;99.90;;;;;;2106591;28;20469;-74
2022/07/24 02:29:43;;;;;;;13.30;12.00;;;16.80;99.90;;;;;;2106515;28;20070;-73
2022/07/24 02:30:44;;;;;;;12.00;10.88;;;16.80;99.90;;;;;;2106420;28;20034;-74
2022/07/24 02:31:45;;;;;;;12.68;11.38;;;16.80;99.90;;;;;;2106540;28;20036;-73
2022/07/24 02:32:45;;;;;;;13.00;11.70;;;16.80;99.90;;;;;;2106299;28;20039;-73
2022/07/24 02:33:46;;;;;;;13.15;11.52;;;16.80;99.90;;;;;;2106458;28;20040;-73
2022/07/24 02:34:47;;;;;;;12.50;11.20;;;16.80;99.90;;;;;;2106278;28;20122;-73
2022/07/24 02:35:47;;;;;;;13.18;11.88;;;16.80;99.90;;;;;;2106344;28;20081;-73
2022/07/24 02:36:48;;;;;;;13.50;12.00;;;16.80;99.90;;;;;;2105733;28;20057;-74
2022/07/24 02:37:49;;;;;;;13.25;11.90;;;16.80;99.90;;;;;;2105601;28;20032;-74
2022/07/24 02:38:49;;;;;;;13.02;11.63;;;16.80;99.90;;;;;;2105865;28;20390;-74
2022/07/24 02:39:50;;;;;;;12.70;11.40;;;16.80;99.90;;;;;;2106435;28;20714;-73
2022/07/24 02:40:51;;;;;;;12.80;11.32;;;16.80;99.90;;;;;;2105973;28;20031;-74
2022/07/24 02:41:51;;;;;;;12.93;11.63;;;16.80;99.90;;;;;;2105743;28;20095;-74
2022/07/24 02:42:52;;;;;;;14.50;11.57;;;16.80;99.90;;;;;;2106228;28;20032;-73
2022/07/24 02:43:53;;;;;;;13.30;12.00;;;16.80;99.90;;;;;;2106753;28;20497;-73
2022/07/24 02:44:54;;;;;;;13.10;11.80;;;16.70;99.90;;;;;;2105829;28;20020;-74
2022/07/24 02:45:55;;;;;;;12.55;11.30;;;16.70;99.90;;;;;;2105798;28;20039;-74
2022/07/24 02:46:55;;;;;;;12.57;11.27;;;16.60;99.90;;;;;;2097288;28;20068;-74
2022/07/24 02:47:57;;;;;;;13.07;11.75;;;16.60;99.90;;;;;;2097298;28;20027;-74
2022/07/24 02:48:57;;;;;;;13.57;11.95;;;16.60;99.90;;;;;;2097504;28;20461;-73
2022/07/24 02:49:59;;;;;;;12.93;11.50;;;16.60;99.90;;;;;;2097314;28;20115;-73
2022/07/24 02:50:59;;;;;;;13.60;12.20;;;16.60;99.90;;;;;;2106057;28;20031;-73
2022/07/24 02:52:00;;;;;;;13.18;11.38;;;16.60;99.90;;;;;;2106300;28;20075;-74
2022/07/24 02:53:01;;;;;;;14.18;11.80;;;16.60;99.90;;;;;;2106165;28;20036;-73
2022/07/24 02:54:02;;;;;;;13.73;11.15;;;16.60;99.90;;;;;;2105928;28;20031;-73
2022/07/24 02:55:03;;;;;;;13.05;11.75;;;16.60;99.90;;;;;;2105422;28;20028;-74
2022/07/24 02:56:04;;;;;;;13.27;11.88;;;16.60;99.90;;;;;;2105535;28;20040;-73
2022/07/24 02:57:05;;;;;;;12.30;11.13;;;16.50;99.90;;;;;;2105441;28;20085;-73
2022/07/24 02:58:06;;;;;;;13.07;11.77;;;16.50;99.90;;;;;;2105484;28;20031;-73
2022/07/24 02:59:07;;;;;;;12.65;11.35;;;16.50;99.90;;;;;;2106291;28;20084;-73
2022/07/24 03:00:10;;;;;;;12.93;11.20;;;16.50;99.90;;;;;;2106182;28;20546;-73
2022/07/24 03:01:11;;;;;;;12.73;11.43;;;16.50;99.90;;;;;;2105499;28;20028;-73
2022/07/24 03:02:12;;;;;;;12.65;11.45;;;16.50;99.90;;;;;;2105778;28;20024;-74
2022/07/24 03:03:12;;;;;;;13.07;11.75;;;16.40;99.90;;;;;;2106217;28;20062;-74
2022/07/24 03:04:13;;;;;;;13.20;11.90;;;16.50;99.90;;;;;;2105437;28;20113;-73
2022/07/24 03:05:14;;;;;;;13.20;11.90;;;16.50;99.90;;;;;;2105407;28;20024;-74
2022/07/24 03:06:14;;;;;;;13.10;11.80;;;16.40;99.90;;;;;;2105488;28;20027;-73
2022/07/24 03:07:15;;;;;;;12.95;11.57;;;16.40;99.90;;;;;;2097192;28;20043;-72
2022/07/24 03:08:16;;;;;;;13.40;11.90;;;16.40;99.90;;;;;;2105492;28;20017;-73
2022/07/24 03:09:17;;;;;;;16.13;12.38;;;16.30;99.90;;;;;;2106163;28;20036;-73
2022/07/24 03:10:17;;;;;;;13.52;12.13;;;16.30;99.90;;;;;;2106411;28;20099;-73
2022/07/24 03:11:18;;;;;;;12.82;11.52;;;16.30;99.90;;;;;;2106359;28;20024;-72
2022/07/24 03:12:19;;;;;;;13.20;11.60;;;16.30;99.90;;;;;;2106135;28;20035;-73
2022/07/24 03:13:20;;;;;;;13.00;11.60;;;16.30;99.90;;;;;;2106373;28;20725;-74
2022/07/24 03:14:20;;;;;;;14.50;11.85;;;16.30;99.90;;;;;;2106169;28;20043;-73
2022/07/24 03:15:21;;;;;;;12.60;11.40;;;16.30;99.90;;;;;;2097328;28;20036;-73
2022/07/24 03:16:22;;;;;;;12.80;11.32;;;16.20;99.90;;;;;;2097248;28;20095;-73
2022/07/24 03:17:22;;;;;;;13.30;11.45;;;16.20;99.90;;;;;;2105686;28;20506;-75
2022/07/24 03:18:23;;;;;;;12.45;11.10;;;16.20;99.90;;;;;;2105340;28;20039;-75
2022/07/24 03:19:23;;;;;;;12.77;11.57;;;16.20;99.90;;;;;;2105684;28;20725;-74
2022/07/24 03:20:26;;;;;;;12.93;11.63;;;16.20;99.90;;;;;;2105041;28;20713;-75
2022/07/24 03:21:27;;;;;;;12.82;11.45;;;16.20;99.90;;;;;;2105163;28;20024;-75
2022/07/24 03:22:27;;;;;;;13.55;10.90;;;16.10;99.90;;;;;;2105689;28;20020;-74
2022/07/24 03:23:28;;;;;;;12.32;10.95;;;16.10;99.90;;;;;;2106129;28;20072;-74
2022/07/24 03:24:29;;;;;;;12.23;10.98;;;16.10;99.90;;;;;;2096450;28;20479;-75
2022/07/24 03:25:29;;;;;;;12.52;11.32;;;16.10;99.90;;;;;;2097136;28;20028;-75
2022/07/24 03:26:30;;;;;;;12.02;10.85;;;16.10;99.90;;;;;;2105893;28;20484;-74
2022/07/24 03:27:31;;;;;;;12.07;10.88;;;16.10;99.90;;;;;;2106569;28;20052;-74
2022/07/24 03:28:31;;;;;;;12.20;11.00;;;16.10;99.90;;;;;;2105526;28;20149;-74
2022/07/24 03:29:32;;;;;;;12.02;10.70;;;16.10;99.90;;;;;;2096979;28;20033;-74
2022/07/24 03:30:33;;;;;;;11.73;10.52;;;16.10;99.90;;;;;;2079794;28;20043;-75
2022/07/24 03:31:34;;;;;;;11.88;10.77;;;16.10;99.90;;;;;;2088107;28;20027;-75
2022/07/24 03:32:35;;;;;;;12.93;10.95;;;16.10;99.90;;;;;;2096301;28;20017;-75
2022/07/24 03:33:35;;;;;;;11.85;10.50;;;16.10;99.90;;;;;;2104453;28;20238;-75
2022/07/24 03:34:36;;;;;;;12.63;11.32;;;16.00;99.90;;;;;;2104889;28;20060;-75
2022/07/24 03:35:37;;;;;;;12.70;11.40;;;16.00;99.90;;;;;;2104948;28;20050;-74
2022/07/24 03:36:37;;;;;;;12.88;11.07;;;16.00;99.90;;;;;;2105052;28;20028;-75
2022/07/24 03:37:38;;;;;;;11.93;10.73;;;16.00;99.90;;;;;;2104583;28;20040;-75
2022/07/24 03:38:39;;;;;;;12.02;10.82;;;16.00;99.90;;;;;;2088269;28;20048;-74
2022/07/24 03:39:39;;;;;;;12.43;11.05;;;16.00;99.90;;;;;;2088700;28;20490;-75
2022/07/24 03:40:40;;;;;;;12.85;11.55;;;16.00;99.90;;;;;;2105674;28;20036;-74
2022/07/24 03:41:41;;;;;;;12.30;11.07;;;16.00;99.90;;;;;;2107055;28;20024;-75
2022/07/24 03:42:41;;;;;;;12.35;11.15;;;16.00;99.90;;;;;;2107001;28;20375;-74
2022/07/24 03:43:42;;;;;;;13.43;11.80;;;16.00;99.90;;;;;;2107171;28;20474;-75
2022/07/24 03:44:43;;;;;;;11.80;10.57;;;16.00;99.90;;;;;;2107656;28;20028;-74
2022/07/24 03:45:44;;;;;;;12.35;11.05;;;16.00;99.90;;;;;;2108027;28;20028;-75
2022/07/24 03:46:44;;;;;;;12.27;11.07;;;16.00;99.90;;;;;;2107749;28;20125;-75
2022/07/24 03:47:45;;;;;;;11.88;10.77;;;16.00;99.90;;;;;;2107062;28;20060;-75
2022/07/24 03:48:46;;;;;;;11.98;10.80;;;16.00;99.90;;;;;;2098860;28;20035;-75
2022/07/24 03:49:46;;;;;;;12.02;10.82;;;16.00;99.90;;;;;;2090961;28;20483;-74
2022/07/24 03:50:47;;;;;;;12.00;10.80;;;16.00;99.90;;;;;;2107612;28;20059;-75
2022/07/24 03:51:48;;;;;;;12.15;10.88;;;16.00;99.90;;;;;;2108391;28;20028;-74
2022/07/24 03:52:49;;;;;;;11.57;10.48;;;16.00;99.90;;;;;;2107894;28;20047;-74
2022/07/24 03:53:50;;;;;;;11.90;10.70;;;16.00;99.90;;;;;;2107388;28;20050;-74
2022/07/24 03:54:51;;;;;;;12.63;11.43;;;16.00;99.90;;;;;;2099396;28;20033;-75
2022/07/24 03:55:51;;;;;;;12.10;10.90;;;16.00;99.90;;;;;;2106003;28;20025;-74
2022/07/24 03:56:52;;;;;;;13.43;11.27;;;16.00;99.90;;;;;;2106493;28;20383;-75
2022/07/24 03:57:53;;;;;;;12.48;11.15;;;16.00;99.90;;;;;;2106217;28;20489;-74
2022/07/24 03:58:54;;;;;;;11.75;10.65;;;16.00;99.90;;;;;;2097121;28;20016;-74
2022/07/24 03:59:55;;;;;;;13.57;11.40;;;16.00;99.90;;;;;;2097593;28;20029;-74
2022/07/24 04:00:55;;;;;;;12.20;11.00;;;16.00;99.90;;;;;;2106605;28;20050;-75
2022/07/24 04:01:56;;;;;;;12.63;11.32;;;16.00;99.90;;;;;;2106976;28;20088;-75
2022/07/24 04:02:57;;;;;;;12.18;10.70;;;16.10;99.90;;;;;;2106696;28;20028;-74
2022/07/24 04:04:04;;;;;;;12.85;11.40;;;16.10;99.90;;;;;;2107186;28;20024;-75
2022/07/24 04:05:08;;;;;;;12.10;10.80;;;16.10;99.90;;;;;;2107247;28;20042;-74
2022/07/24 04:06:09;;;;;;;12.35;11.05;;;16.10;99.90;;;;;;2107049;28;20020;-75
2022/07/24 04:07:09;;;;;;;12.68;11.38;;;16.10;99.90;;;;;;2106296;28;20541;-75
2022/07/24 04:08:10;;;;;;;12.40;11.20;;;16.20;99.90;;;;;;2106395;28;20036;-76
2022/07/24 04:09:11;;;;;;;12.27;10.90;;;16.20;99.90;;;;;;2107207;28;20035;-75
2022/07/24 04:10:11;;;;;;;11.65;10.48;;;16.20;99.90;;;;;;2098450;28;20033;-74
2022/07/24 04:11:12;;;;;;;12.43;11.15;;;16.20;99.90;;;;;;2098094;28;20032;-75
2022/07/24 04:12:13;;;;;;;12.18;10.88;;;16.30;99.90;;;;;;2105801;28;20482;-74
2022/07/24 04:13:13;;;;;;;12.77;11.48;;;16.30;99.90;;;;;;2105977;28;20036;-75
2022/07/24 04:14:14;;;;;;;11.68;10.57;;;16.30;99.90;;;;;;2105398;28;20089;-74
2022/07/24 04:15:15;;;;;;;12.50;11.30;;;16.30;99.90;;;;;;2105112;28;20038;-74
2022/07/24 04:16:15;;;;;;;12.00;10.85;;;16.40;99.90;;;;;;2104964;28;20086;-75
2022/07/24 04:17:16;;;;;;;12.68;11.45;;;16.40;99.90;;;;;;2104876;28;20032;-75
2022/07/24 04:18:17;;;;;;;12.15;10.85;;;16.50;99.90;;;;;;2104700;28;20076;-75
2022/07/24 04:19:17;;;;;;;12.10;10.90;;;16.60;99.90;;;;;;2104896;28;20024;-75
2022/07/24 04:20:21;;;;;;;11.68;10.48;;;16.80;99.90;;;;;;2105200;28;20145;-74
2022/07/24 04:21:22;;;;;;;11.35;10.25;;;17.00;99.90;;;;;;2105208;28;20073;-74
2022/07/24 04:22:23;;;;;;;11.90;10.70;;;17.40;99.90;;;;;;2105197;28;20381;-74
2022/07/24 04:23:24;;;;;;;11.63;10.43;;;17.70;99.90;;;;;;2105186;28;20535;-75
2022/07/24 04:24:24;;;;;;;11.00;9.90;;;18.10;99.90;;;;;;2105059;28;20669;-74
2022/07/24 04:25:25;;;;;;;11.88;10.07;;;18.40;99.90;;;;;;2106206;28;20039;-74
2022/07/24 04:26:26;;;;;;;11.57;9.73;;;18.70;99.90;;;;;;2106458;28;20036;-74
2022/07/24 04:27:27;;;;;;;10.57;9.57;;;19.10;99.90;;;;;;2106755;28;20027;-74
2022/07/24 04:28:27;;;;;;;11.32;9.40;;;19.40;99.90;;;;;;2106974;28;20080;-74
2022/07/24 04:29:28;;;;;;;10.20;9.13;;;19.70;99.90;;;;;;2106616;28;20070;-74
2022/07/24 04:30:29;;;;;;;10.13;9.13;;;20.00;99.90;;;;;;2105808;28;20029;-74
2022/07/24 04:31:29;;;;;;;11.50;10.27;;;20.30;99.90;;;;;;2097636;28;20025;-75
2022/07/24 04:32:30;;;;;;;10.90;9.80;;;20.50;99.90;;;;;;2097568;28;20029;-75
2022/07/24 04:33:31;;;;;;;10.50;9.40;;;20.70;99.90;;;;;;2106228;28;20061;-75
2022/07/24 04:34:31;;;;;;;9.70;8.80;;;20.90;99.90;;;;;;2107779;28;20031;-75
2022/07/24 04:35:32;;;;;;;10.70;9.07;;;21.10;99.90;;;;;;2107733;28;20032;-74
2022/07/24 04:36:33;;;;;;;10.27;8.60;;;21.20;99.90;;;;;;2099565;28;20060;-74
2022/07/24 04:37:33;;;;;;;9.90;8.93;;;21.40;99.90;;;;;;2108517;28;20401;-75
2022/07/24 04:38:34;;;;;;;9.98;9.00;;;21.60;99.90;;;;;;2109655;28;20028;-74
2022/07/24 04:39:35;;;;;;;9.40;8.50;;;21.70;99.90;;;;;;2110277;28;20251;-73
2022/07/24 04:40:35;;;;;;;9.40;8.43;;;21.80;99.60;;;;;;2109215;28;20093;-73
2022/07/24 04:41:36;;;;;;;9.50;8.60;;;22.00;99.00;;;;;;2109798;28;20021;-73
2022/07/24 04:42:36;;;;;;;9.05;8.15;;;22.10;98.30;;;;;;2107991;28;20050;-74
2022/07/24 04:43:37;;;;;;;9.82;8.73;;;22.20;97.60;;;;;;2106156;28;20126;-73
2022/07/24 04:44:38;;;;;;;9.65;8.52;;;22.30;96.90;;;;;;2106150;28;20107;-73
2022/07/24 04:45:39;;;;;;;9.30;8.30;;;22.50;96.40;;;;;;2106706;28;20024;-74
2022/07/24 04:46:39;;;;;;;9.60;8.60;;;22.50;95.70;;;;;;2106794;28;20519;-74
2022/07/24 04:47:40;;;;;;;9.48;8.57;;;22.70;95.20;;;;;;2106824;28;20478;-74
2022/07/24 04:48:41;;;;;;;9.30;8.40;;;22.70;94.50;;;;;;2106754;28;20024;-73
2022/07/24 04:49:41;;;;;;;8.68;7.85;;;22.90;94.10;;;;;;2106625;28;20114;-73
2022/07/24 04:50:42;;;;;;;8.32;7.57;;;22.90;93.80;;;;;;2106813;28;20032;-74
2022/07/24 04:51:42;;;;;;;9.32;8.50;;;23.10;93.40;;;;;;2106929;28;20024;-73
2022/07/24 04:52:43;;;;;;;9.02;8.05;;;23.10;93.00;;;;;;2097796;28;20032;-76
2022/07/24 04:53:47;;;;;;;9.52;8.63;;;23.30;92.80;;;;;;2082568;28;20128;-75
2022/07/24 04:54:48;;;;;;;9.13;8.32;;;23.40;92.20;;;;;;2089667;28;20032;-75
2022/07/24 04:55:48;;;;;;;9.20;8.20;;;23.50;91.80;;;;;;2089328;28;20059;-75
2022/07/24 04:56:49;;;;;;;9.35;8.45;;;23.60;91.40;;;;;;2097541;28;20052;-75
2022/07/24 04:57:50;;;;;;;9.07;8.18;;;23.60;90.90;;;;;;2105670;28;20506;-75
2022/07/24 04:58:50;;;;;;;9.05;8.20;;;23.70;90.60;;;;;;2105804;28;20103;-75
2022/07/24 04:59:51;;;;;;;8.70;7.90;;;23.80;90.30;;;;;;2106441;28;20066;-74
2022/07/24 05:00:52;;;;;;;9.60;8.60;;;23.90;89.80;;;;;;2106462;28;20039;-75
2022/07/24 05:01:53;;;;;;;9.98;8.70;;;23.90;89.00;;;;;;2097559;28;20036;-74
2022/07/24 05:02:53;;;;;;;9.20;8.30;;;24.00;88.40;;;;;;2097333;28;20024;-74
2022/07/24 05:03:56;;;;;;;8.77;7.97;;;24.00;88.30;;;;;;2105682;28;20502;-73
2022/07/24 05:04:57;;;;;;;9.85;8.82;;;24.00;87.70;;;;;;2105598;28;20024;-73
2022/07/24 05:05:58;;;;;;;8.75;7.95;;;24.00;86.70;;;;;;2105809;28;20379;-73
2022/07/24 05:06:58;;;;;;;8.00;7.22;;;24.00;86.10;;;;;;2106500;28;20085;-73
2022/07/24 05:07:59;;;;;;;9.15;7.90;;;24.10;85.70;;;;;;2090224;28;20048;-74
2022/07/24 05:09:00;;;;;;;8.98;7.60;;;24.20;84.00;;;;;;2097437;28;20025;-75
2022/07/24 05:10:01;;;;;;;8.07;7.13;;;24.20;83.50;;;;;;2105700;28;20024;-74